sensor_id;sensor_type;location;lat;lon;timestamp;pressure;altitude;pressure_sealevel;temperature;humidity
80749;BME280;70145;53.746;9.970;2024-02-21T00:00:49;101498.31;;;7.09;64.81
80749;BME280;70145;53.746;9.970;2024-02-21T00:03:15;101496.44;;;7.11;64.63
80749;BME280;70145;53.746;9.970;2024-02-21T00:05:40;101497.19;;;7.13;64.29
80749;BME280;70145;53.746;9.970;2024-02-21T00:08:40;101499.09;;;7.11;64.63
80749;BME280;70145;53.746;9.970;2024-02-21T00:11:57;101501.59;;;7.14;64.12
80749;BME280;70145;53.746;9.970;2024-02-21T00:14:26;101502.44;;;7.15;64.43
80749;BME280;70145;53.746;9.970;2024-02-21T00:16:52;101491.66;;;7.16;64.59
80749;BME280;70145;53.746;9.970;2024-02-21T00:19:17;101483.13;;;7.10;64.75
80749;BME280;70145;53.746;9.970;2024-02-21T00:21:42;101477.59;;;7.13;64.71
80749;BME280;70145;53.746;9.970;2024-02-21T00:24:07;101478.44;;;7.13;64.47
80749;BME280;70145;53.746;9.970;2024-02-21T00:26:33;101463.50;;;7.09;64.99
80749;BME280;70145;53.746;9.970;2024-02-21T00:29:10;101463.66;;;7.06;64.94
80749;BME280;70145;53.746;9.970;2024-02-21T00:31:38;101464.19;;;7.13;64.61
80749;BME280;70145;53.746;9.970;2024-02-21T00:34:03;101458.75;;;7.14;64.58
80749;BME280;70145;53.746;9.970;2024-02-21T00:36:29;101459.41;;;7.18;64.61
80749;BME280;70145;53.746;9.970;2024-02-21T00:38:54;101453.38;;;7.14;65.12
80749;BME280;70145;53.746;9.970;2024-02-21T00:41:19;101440.09;;;7.13;64.61
80749;BME280;70145;53.746;9.970;2024-02-21T00:43:44;101453.22;;;7.17;64.76
80749;BME280;70145;53.746;9.970;2024-02-21T00:46:10;101448.28;;;7.10;65.30
80749;BME280;70145;53.746;9.970;2024-02-21T00:48:35;101439.56;;;7.06;65.06
80749;BME280;70145;53.746;9.970;2024-02-21T00:51:00;101434.81;;;7.11;65.03
80749;BME280;70145;53.746;9.970;2024-02-21T00:53:28;101431.94;;;7.14;64.83
80749;BME280;70145;53.746;9.970;2024-02-21T00:55:53;101436.44;;;7.14;64.87
80749;BME280;70145;53.746;9.970;2024-02-21T00:58:44;101425.63;;;7.15;64.82
80749;BME280;70145;53.746;9.970;2024-02-21T01:01:12;101421.06;;;7.17;64.73
80749;BME280;70145;53.746;9.970;2024-02-21T01:03:39;101415.53;;;7.20;65.19
80749;BME280;70145;53.746;9.970;2024-02-21T01:06:04;101412.75;;;7.22;65.13
80749;BME280;70145;53.746;9.970;2024-02-21T01:08:30;101418.38;;;7.17;64.79
80749;BME280;70145;53.746;9.970;2024-02-21T01:10:55;101412.75;;;7.22;65.09
80749;BME280;70145;53.746;9.970;2024-02-21T01:13:28;101415.53;;;7.20;64.84
80749;BME280;70145;53.746;9.970;2024-02-21T01:19:36;101403.25;;;7.16;65.04
80749;BME280;70145;53.746;9.970;2024-02-21T01:22:21;101394.28;;;7.17;65.12
80749;BME280;70145;53.746;9.970;2024-02-21T01:24:46;101400.56;;;7.16;65.16
80749;BME280;70145;53.746;9.970;2024-02-21T01:27:32;101397.03;;;7.16;65.31
80749;BME280;70145;53.746;9.970;2024-02-21T01:30:10;101390.03;;;7.13;65.59
80749;BME280;70145;53.746;9.970;2024-02-21T01:33:17;101393.66;;;7.12;65.78
80749;BME280;70145;53.746;9.970;2024-02-21T01:36:32;101379.50;;;7.10;66.17
80749;BME280;70145;53.746;9.970;2024-02-21T01:39:08;101373.03;;;7.14;65.71
80749;BME280;70145;53.746;9.970;2024-02-21T01:41:33;101373.78;;;7.16;65.76
80749;BME280;70145;53.746;9.970;2024-02-21T01:51:04;101363.06;;;7.16;65.95
80749;BME280;70145;53.746;9.970;2024-02-21T01:53:34;101361.25;;;7.17;65.80
80749;BME280;70145;53.746;9.970;2024-02-21T01:56:01;101349.75;;;7.15;66.32
80749;BME280;70145;53.746;9.970;2024-02-21T01:58:27;101354.38;;;7.13;66.37
80749;BME280;70145;53.746;9.970;2024-02-21T02:07:36;101314.47;;;7.08;66.48
80749;BME280;70145;53.746;9.970;2024-02-21T02:11:22;101286.81;;;7.08;66.65
80749;BME280;70145;53.746;9.970;2024-02-21T02:14:03;101236.09;;;7.05;66.62
80749;BME280;70145;53.746;9.970;2024-02-21T02:16:28;101199.28;;;7.08;66.67
80749;BME280;70145;53.746;9.970;2024-02-21T02:33:21;101229.31;;;6.99;67.15
80749;BME280;70145;53.746;9.970;2024-02-21T02:35:47;101232.06;;;6.98;67.45
80749;BME280;70145;53.746;9.970;2024-02-21T02:38:50;101238.28;;;6.98;67.05
80749;BME280;70145;53.746;9.970;2024-02-21T02:45:29;101234.06;;;6.94;67.51
80749;BME280;70145;53.746;9.970;2024-02-21T02:48:15;101239.16;;;6.99;67.25
80749;BME280;70145;53.746;9.970;2024-02-21T02:50:46;101245.53;;;6.96;67.71
80749;BME280;70145;53.746;9.970;2024-02-21T02:53:35;101239.06;;;7.00;67.21
80749;BME280;70145;53.746;9.970;2024-02-21T02:56:15;101240.38;;;6.93;67.68
80749;BME280;70145;53.746;9.970;2024-02-21T02:59:00;101247.09;;;7.00;67.24
80749;BME280;70145;53.746;9.970;2024-02-21T03:01:26;101260.38;;;7.02;67.65
80749;BME280;70145;53.746;9.970;2024-02-21T03:03:52;101258.69;;;7.01;67.21
80749;BME280;70145;53.746;9.970;2024-02-21T03:09:35;101262.56;;;6.95;67.59
80749;BME280;70145;53.746;9.970;2024-02-21T03:12:00;101265.06;;;6.98;67.79
80749;BME280;70145;53.746;9.970;2024-02-21T03:14:31;101261.44;;;6.99;67.77
80749;BME280;70145;53.746;9.970;2024-02-21T03:16:58;101251.16;;;6.92;67.93
80749;BME280;70145;53.746;9.970;2024-02-21T03:19:23;101255.22;;;6.99;68.05
80749;BME280;70145;53.746;9.970;2024-02-21T03:21:49;101266.63;;;7.02;67.54
80749;BME280;70145;53.746;9.970;2024-02-21T03:24:18;101254.34;;;6.98;67.64
80749;BME280;70145;53.746;9.970;2024-02-21T03:26:44;101254.63;;;6.94;68.01
80749;BME280;70145;53.746;9.970;2024-02-21T03:40:48;101243.91;;;6.94;68.10
80749;BME280;70145;53.746;9.970;2024-02-21T03:43:47;101249.19;;;6.95;68.30
80749;BME280;70145;53.746;9.970;2024-02-21T03:46:40;101243.28;;;7.04;67.92
80749;BME280;70145;53.746;9.970;2024-02-21T03:52:53;101239.84;;;7.02;67.98
80749;BME280;70145;53.746;9.970;2024-02-21T03:55:38;101240.81;;;7.01;68.04
80749;BME280;70145;53.746;9.970;2024-02-21T04:05:15;101237.69;;;6.93;68.09
80749;BME280;70145;53.746;9.970;2024-02-21T04:08:22;101221.44;;;6.96;68.37
80749;BME280;70145;53.746;9.970;2024-02-21T04:14:53;101215.13;;;6.97;68.24
80749;BME280;70145;53.746;9.970;2024-02-21T04:17:21;101214.19;;;6.98;68.46
80749;BME280;70145;53.746;9.970;2024-02-21T04:26:36;101215.97;;;6.98;68.35
80749;BME280;70145;53.746;9.970;2024-02-21T04:29:10;101223.28;;;6.96;69.03
80749;BME280;70145;53.746;9.970;2024-02-21T04:31:59;101224.63;;;7.03;68.33
80749;BME280;70145;53.746;9.970;2024-02-21T04:49:53;101211.78;;;6.94;68.85
80749;BME280;70145;53.746;9.970;2024-02-21T04:52:05;101213.41;;;6.96;68.57
80749;BME280;70145;53.746;9.970;2024-02-21T04:58:22;101210.63;;;6.98;68.32
80749;BME280;70145;53.746;9.970;2024-02-21T05:00:53;101205.47;;;6.95;69.15
80749;BME280;70145;53.746;9.970;2024-02-21T05:06:38;101199.75;;;7.01;68.68
80749;BME280;70145;53.746;9.970;2024-02-21T05:09:07;101202.16;;;7.05;68.97
80749;BME280;70145;53.746;9.970;2024-02-21T05:16:22;101204.94;;;7.04;68.72
80749;BME280;70145;53.746;9.970;2024-02-21T05:25:52;101197.00;;;7.02;68.63
80749;BME280;70145;53.746;9.970;2024-02-21T05:28:31;101197.94;;;7.01;68.52
80749;BME280;70145;53.746;9.970;2024-02-21T05:31:21;101198.69;;;7.03;68.96
80749;BME280;70145;53.746;9.970;2024-02-21T05:33:46;101191.34;;;7.07;68.81
80749;BME280;70145;53.746;9.970;2024-02-21T05:39:37;101192.16;;;6.93;69.66
80749;BME280;70145;53.746;9.970;2024-02-21T05:42:02;101200.78;;;6.98;69.08
80749;BME280;70145;53.746;9.970;2024-02-21T05:44:27;101196.13;;;7.02;68.81
80749;BME280;70145;53.746;9.970;2024-02-21T05:46:53;101196.38;;;6.97;69.20
80749;BME280;70145;53.746;9.970;2024-02-21T05:49:18;101191.81;;;6.99;69.28
80749;BME280;70145;53.746;9.970;2024-02-21T05:51:43;101188.75;;;7.05;69.06
80749;BME280;70145;53.746;9.970;2024-02-21T05:54:08;101190.47;;;7.06;69.18
80749;BME280;70145;53.746;9.970;2024-02-21T05:56:34;101201.88;;;7.10;68.94
80749;BME280;70145;53.746;9.970;2024-02-21T05:58:59;101199.75;;;7.15;68.66
80749;BME280;70145;53.746;9.970;2024-02-21T06:01:25;101192.69;;;7.14;68.72
80749;BME280;70145;53.746;9.970;2024-02-21T06:03:50;101202.41;;;7.15;68.77
80749;BME280;70145;53.746;9.970;2024-02-21T06:06:16;101211.44;;;7.14;68.88
80749;BME280;70145;53.746;9.970;2024-02-21T06:08:41;101204.56;;;7.10;69.27
80749;BME280;70145;53.746;9.970;2024-02-21T06:11:07;101218.91;;;7.09;69.05
80749;BME280;70145;53.746;9.970;2024-02-21T06:13:32;101216.22;;;7.09;68.64
80749;BME280;70145;53.746;9.970;2024-02-21T06:15:57;101220.34;;;7.14;68.58
80749;BME280;70145;53.746;9.970;2024-02-21T06:18:22;101226.44;;;7.16;68.16
80749;BME280;70145;53.746;9.970;2024-02-21T06:20:48;101216.88;;;7.12;68.93
80749;BME280;70145;53.746;9.970;2024-02-21T06:23:15;101217.66;;;7.14;68.75
80749;BME280;70145;53.746;9.970;2024-02-21T06:25:42;101216.50;;;7.18;68.54
80749;BME280;70145;53.746;9.970;2024-02-21T06:28:07;101218.31;;;7.18;68.09
80749;BME280;70145;53.746;9.970;2024-02-21T06:30:32;101217.28;;;7.20;67.88
80749;BME280;70145;53.746;9.970;2024-02-21T06:32:58;101216.31;;;7.21;68.13
80749;BME280;70145;53.746;9.970;2024-02-21T06:35:24;101215.72;;;7.16;68.35
80749;BME280;70145;53.746;9.970;2024-02-21T06:37:50;101222.41;;;7.23;68.05
80749;BME280;70145;53.746;9.970;2024-02-21T06:40:21;101216.84;;;7.26;67.68
80749;BME280;70145;53.746;9.970;2024-02-21T06:42:47;101229.50;;;7.24;68.10
80749;BME280;70145;53.746;9.970;2024-02-21T06:45:12;101219.44;;;7.28;67.95
80749;BME280;70145;53.746;9.970;2024-02-21T06:47:38;101222.22;;;7.26;67.94
80749;BME280;70145;53.746;9.970;2024-02-21T06:50:04;101227.56;;;7.26;68.10
80749;BME280;70145;53.746;9.970;2024-02-21T06:52:29;101216.75;;;7.28;67.70
80749;BME280;70145;53.746;9.970;2024-02-21T06:54:56;101228.00;;;7.20;68.23
80749;BME280;70145;53.746;9.970;2024-02-21T06:57:21;101233.03;;;7.25;67.95
80749;BME280;70145;53.746;9.970;2024-02-21T06:59:46;101220.97;;;7.18;68.32
80749;BME280;70145;53.746;9.970;2024-02-21T07:02:12;101220.97;;;7.18;68.40
80749;BME280;70145;53.746;9.970;2024-02-21T07:04:37;101218.31;;;7.18;68.53
80749;BME280;70145;53.746;9.970;2024-02-21T07:07:03;101212.94;;;7.18;68.38
80749;BME280;70145;53.746;9.970;2024-02-21T07:09:28;101211.91;;;7.20;68.35
80749;BME280;70145;53.746;9.970;2024-02-21T07:11:57;101211.81;;;7.22;68.24
80749;BME280;70145;53.746;9.970;2024-02-21T07:14:22;101219.09;;;7.20;68.02
80749;BME280;70145;53.746;9.970;2024-02-21T07:16:47;101209.72;;;7.13;68.35
80749;BME280;70145;53.746;9.970;2024-02-21T07:19:12;101215.53;;;7.19;67.96
80749;BME280;70145;53.746;9.970;2024-02-21T07:21:38;101208.16;;;7.23;68.03
80749;BME280;70145;53.746;9.970;2024-02-21T07:24:06;101226.84;;;7.24;68.17
80749;BME280;70145;53.746;9.970;2024-02-21T07:26:32;101223.09;;;7.27;67.73
80749;BME280;70145;53.746;9.970;2024-02-21T07:28:58;101219.34;;;7.29;67.64
80749;BME280;70145;53.746;9.970;2024-02-21T07:31:23;101220.91;;;7.33;67.77
80749;BME280;70145;53.746;9.970;2024-02-21T07:33:48;101232.34;;;7.35;67.45
80749;BME280;70145;53.746;9.970;2024-02-21T07:36:15;101244.81;;;7.36;67.57
80749;BME280;70145;53.746;9.970;2024-02-21T07:38:40;101242.00;;;7.38;67.42
80749;BME280;70145;53.746;9.970;2024-02-21T07:41:05;101242.88;;;7.38;67.57
80749;BME280;70145;53.746;9.970;2024-02-21T07:43:31;101246.53;;;7.37;67.32
80749;BME280;70145;53.746;9.970;2024-02-21T07:45:56;101238.41;;;7.39;67.49
80749;BME280;70145;53.746;9.970;2024-02-21T07:48:21;101246.53;;;7.37;67.32
80749;BME280;70145;53.746;9.970;2024-02-21T07:50:51;101239.34;;;7.38;67.59
80749;BME280;70145;53.746;9.970;2024-02-21T07:53:17;101236.47;;;7.41;67.26
80749;BME280;70145;53.746;9.970;2024-02-21T07:55:42;101227.59;;;7.40;67.48
80749;BME280;70145;53.746;9.970;2024-02-21T07:58:07;101222.13;;;7.42;67.62
80749;BME280;70145;53.746;9.970;2024-02-21T08:00:33;101237.34;;;7.41;67.49
80749;BME280;70145;53.746;9.970;2024-02-21T08:02:58;101236.28;;;7.44;67.48
80749;BME280;70145;53.746;9.970;2024-02-21T08:05:24;101238.84;;;7.45;67.44
80749;BME280;70145;53.746;9.970;2024-02-21T08:07:49;101228.13;;;7.45;67.06
80749;BME280;70145;53.746;9.970;2024-02-21T08:10:15;101228.31;;;7.42;67.30
80749;BME280;70145;53.746;9.970;2024-02-21T08:12:40;101218.28;;;7.46;66.81
80749;BME280;70145;53.746;9.970;2024-02-21T08:15:05;101219.25;;;7.45;67.58
80749;BME280;70145;53.746;9.970;2024-02-21T08:17:33;101219.16;;;7.46;67.52
80749;BME280;70145;53.746;9.970;2024-02-21T08:19:59;101222.69;;;7.47;67.20
80749;BME280;70145;53.746;9.970;2024-02-21T08:22:24;101215.50;;;7.47;67.22
80749;BME280;70145;53.746;9.970;2024-02-21T08:24:50;101216.38;;;7.48;67.54
80749;BME280;70145;53.746;9.970;2024-02-21T08:27:15;101200.28;;;7.48;67.43
80749;BME280;70145;53.746;9.970;2024-02-21T08:29:40;101210.25;;;7.46;67.77
80749;BME280;70145;53.746;9.970;2024-02-21T08:32:06;101215.03;;;7.41;67.63
80749;BME280;70145;53.746;9.970;2024-02-21T08:34:31;101207.56;;;7.46;67.45
80749;BME280;70145;53.746;9.970;2024-02-21T08:36:59;101211.75;;;7.50;67.46
80749;BME280;70145;53.746;9.970;2024-02-21T08:39:24;101208.00;;;7.52;67.69
80749;BME280;70145;53.746;9.970;2024-02-21T08:41:49;101209.09;;;7.50;67.43
80749;BME280;70145;53.746;9.970;2024-02-21T08:44:16;101213.38;;;7.52;67.70
80749;BME280;70145;53.746;9.970;2024-02-21T08:46:41;101206.31;;;7.51;67.39
80749;BME280;70145;53.746;9.970;2024-02-21T08:49:06;101204.59;;;7.50;67.25
80749;BME280;70145;53.746;9.970;2024-02-21T08:51:32;101208.78;;;7.54;67.04
80749;BME280;70145;53.746;9.970;2024-02-21T08:53:58;101207.72;;;7.57;67.12
80749;BME280;70145;53.746;9.970;2024-02-21T08:56:23;101205.03;;;7.57;66.94
80749;BME280;70145;53.746;9.970;2024-02-21T08:58:49;101201.31;;;7.59;66.91
80749;BME280;70145;53.746;9.970;2024-02-21T09:01:15;101206.78;;;7.58;67.26
80749;BME280;70145;53.746;9.970;2024-02-21T09:03:40;101202.16;;;7.60;66.75
80749;BME280;70145;53.746;9.970;2024-02-21T09:06:06;101194.22;;;7.58;66.90
80749;BME280;70145;53.746;9.970;2024-02-21T09:08:32;101197.56;;;7.62;66.72
80749;BME280;70145;53.746;9.970;2024-02-21T09:10:57;101198.31;;;7.64;67.31
80749;BME280;70145;53.746;9.970;2024-02-21T09:13:23;101198.44;;;7.62;66.98
80749;BME280;70145;53.746;9.970;2024-02-21T09:15:49;101205.31;;;7.66;66.68
80749;BME280;70145;53.746;9.970;2024-02-21T09:18:15;101183.00;;;7.66;66.60
80749;BME280;70145;53.746;9.970;2024-02-21T09:20:40;101190.28;;;7.64;66.83
80749;BME280;70145;53.746;9.970;2024-02-21T09:23:06;101179.44;;;7.65;67.12
80749;BME280;70145;53.746;9.970;2024-02-21T09:25:31;101180.22;;;7.67;66.85
80749;BME280;70145;53.746;9.970;2024-02-21T09:27:57;101179.34;;;7.67;66.71
80749;BME280;70145;53.746;9.970;2024-02-21T09:30:24;101175.81;;;7.66;66.90
80749;BME280;70145;53.746;9.970;2024-02-21T09:32:49;101166.72;;;7.69;66.54
80749;BME280;70145;53.746;9.970;2024-02-21T09:35:15;101176.56;;;7.68;66.83
80749;BME280;70145;53.746;9.970;2024-02-21T09:37:40;101173.16;;;7.66;66.63
80749;BME280;70145;53.746;9.970;2024-02-21T09:40:06;101172.19;;;7.67;66.67
80749;BME280;70145;53.746;9.970;2024-02-21T09:42:40;101175.44;;;7.73;66.40
80749;BME280;70145;53.746;9.970;2024-02-21T09:45:18;101169.28;;;7.70;66.48
80749;BME280;70145;53.746;9.970;2024-02-21T09:47:54;101170.06;;;7.73;66.28
80749;BME280;70145;53.746;9.970;2024-02-21T09:50:22;101171.78;;;7.73;65.86
80749;BME280;70145;53.746;9.970;2024-02-21T09:52:51;101167.19;;;7.76;66.23
80749;BME280;70145;53.746;9.970;2024-02-21T09:55:17;101168.03;;;7.76;66.11
80749;BME280;70145;53.746;9.970;2024-02-21T09:57:44;101171.69;;;7.75;66.03
80749;BME280;70145;53.746;9.970;2024-02-21T10:00:10;101174.16;;;7.78;66.27
80749;BME280;70145;53.746;9.970;2024-02-21T10:02:35;101176.75;;;7.80;65.60
80749;BME280;70145;53.746;9.970;2024-02-21T10:05:02;101173.19;;;7.79;66.03
80749;BME280;70145;53.746;9.970;2024-02-21T10:07:29;101172.31;;;7.78;65.83
80749;BME280;70145;53.746;9.970;2024-02-21T10:10:02;101166.94;;;7.78;66.38
80749;BME280;70145;53.746;9.970;2024-02-21T10:12:28;101166.84;;;7.80;66.12
80749;BME280;70145;53.746;9.970;2024-02-21T10:15:06;101170.81;;;7.74;66.35
80749;BME280;70145;53.746;9.970;2024-02-21T10:17:35;101169.88;;;7.76;66.38
80749;BME280;70145;53.746;9.970;2024-02-21T10:20:11;101172.31;;;7.78;66.26
80749;BME280;70145;53.746;9.970;2024-02-21T10:22:38;101176.63;;;7.81;65.80
80749;BME280;70145;53.746;9.970;2024-02-21T10:25:11;101172.88;;;7.84;66.02
80749;BME280;70145;53.746;9.970;2024-02-21T10:27:38;101170.00;;;7.87;66.20
80749;BME280;70145;53.746;9.970;2024-02-21T10:30:14;101175.38;;;7.87;66.15
80749;BME280;70145;53.746;9.970;2024-02-21T10:32:53;101161.84;;;7.88;66.14
80749;BME280;70145;53.746;9.970;2024-02-21T10:35:29;101158.31;;;7.88;66.40
80749;BME280;70145;53.746;9.970;2024-02-21T10:37:59;101159.06;;;7.90;66.29
80749;BME280;70145;53.746;9.970;2024-02-21T10:40:29;101154.69;;;7.89;66.32
80749;BME280;70145;53.746;9.970;2024-02-21T10:42:57;101150.94;;;7.91;66.18
80749;BME280;70145;53.746;9.970;2024-02-21T10:45:35;101144.91;;;7.88;66.23
80749;BME280;70145;53.746;9.970;2024-02-21T10:48:14;101142.22;;;7.88;66.35
80749;BME280;70145;53.746;9.970;2024-02-21T10:51:18;101141.28;;;7.89;66.25
80749;BME280;70145;53.746;9.970;2024-02-21T10:56:38;101133.22;;;7.89;65.96
80749;BME280;70145;53.746;9.970;2024-02-21T10:59:05;101122.50;;;7.89;66.20
80749;BME280;70145;53.746;9.970;2024-02-21T11:01:31;101117.97;;;7.89;66.31
80749;BME280;70145;53.746;9.970;2024-02-21T11:03:59;101120.66;;;7.89;66.18
80749;BME280;70145;53.746;9.970;2024-02-21T11:06:27;101117.13;;;7.89;66.29
80749;BME280;70145;53.746;9.970;2024-02-21T11:09:03;101116.16;;;7.90;66.35
80749;BME280;70145;53.746;9.970;2024-02-21T11:11:33;101111.88;;;7.87;66.92
80749;BME280;70145;53.746;9.970;2024-02-21T11:14:11;101113.69;;;7.87;66.57
80749;BME280;70145;53.746;9.970;2024-02-21T11:16:42;101115.41;;;7.88;67.20
80749;BME280;70145;53.746;9.970;2024-02-21T11:19:09;101105.44;;;7.90;67.00
80749;BME280;70145;53.746;9.970;2024-02-21T11:21:36;101095.56;;;7.90;66.95
80749;BME280;70145;53.746;9.970;2024-02-21T11:24:03;101101.78;;;7.91;67.02
80749;BME280;70145;53.746;9.970;2024-02-21T11:26:29;101099.97;;;7.91;67.10
80749;BME280;70145;53.746;9.970;2024-02-21T11:28:58;101099.00;;;7.92;67.26
80749;BME280;70145;53.746;9.970;2024-02-21T11:31:25;101099.19;;;7.89;66.93
80749;BME280;70145;53.746;9.970;2024-02-21T11:33:52;101089.34;;;7.90;67.00
80749;BME280;70145;53.746;9.970;2024-02-21T11:36:25;101082.91;;;7.92;66.64
80749;BME280;70145;53.746;9.970;2024-02-21T11:38:51;101090.84;;;7.94;67.14
80749;BME280;70145;53.746;9.970;2024-02-21T11:41:17;101082.81;;;7.94;67.17
80749;BME280;70145;53.746;9.970;2024-02-21T11:43:42;101069.38;;;7.94;66.95
80749;BME280;70145;53.746;9.970;2024-02-21T11:46:07;101066.59;;;7.95;66.74
80749;BME280;70145;53.746;9.970;2024-02-21T11:48:34;101059.31;;;7.97;66.82
80749;BME280;70145;53.746;9.970;2024-02-21T11:51:00;101061.03;;;7.98;67.22
80749;BME280;70145;53.746;9.970;2024-02-21T11:53:26;101067.28;;;7.99;66.69
80749;BME280;70145;53.746;9.970;2024-02-21T11:55:56;101059.44;;;7.96;67.15
80749;BME280;70145;53.746;9.970;2024-02-21T11:58:22;101058.56;;;7.95;67.10
80749;BME280;70145;53.746;9.970;2024-02-21T12:00:48;101052.44;;;7.93;67.02
80749;BME280;70145;53.746;9.970;2024-02-21T12:03:14;101046.97;;;7.95;66.84
80749;BME280;70145;53.746;9.970;2024-02-21T12:05:41;101040.66;;;7.96;66.82
80749;BME280;70145;53.746;9.970;2024-02-21T12:08:06;101040.88;;;7.93;66.96
80749;BME280;70145;53.746;9.970;2024-02-21T12:10:34;101039.13;;;7.92;66.82
80749;BME280;70145;53.746;9.970;2024-02-21T12:13:10;101028.63;;;7.89;67.11
80749;BME280;70145;53.746;9.970;2024-02-21T12:15:36;101026.28;;;7.84;66.91
80749;BME280;70145;53.746;9.970;2024-02-21T12:18:01;101034.53;;;7.81;66.90
80749;BME280;70145;53.746;9.970;2024-02-21T12:20:27;101025.50;;;7.82;67.25
80749;BME280;70145;53.746;9.970;2024-02-21T12:22:52;101033.03;;;7.77;67.09
80749;BME280;70145;53.746;9.970;2024-02-21T12:25:20;101029.25;;;7.80;66.85
80749;BME280;70145;53.746;9.970;2024-02-21T12:27:51;101022.50;;;7.74;67.12
80749;BME280;70145;53.746;9.970;2024-02-21T12:30:17;101025.81;;;7.77;66.74
80749;BME280;70145;53.746;9.970;2024-02-21T12:32:42;101030.34;;;7.77;66.54
80749;BME280;70145;53.746;9.970;2024-02-21T12:35:08;101028.81;;;7.73;66.73
80749;BME280;70145;53.746;9.970;2024-02-21T12:37:33;101022.81;;;7.69;66.93
80749;BME280;70145;53.746;9.970;2024-02-21T12:39:59;101023.34;;;7.74;66.55
80749;BME280;70145;53.746;9.970;2024-02-21T12:42:25;101022.41;;;7.76;66.55
80749;BME280;70145;53.746;9.970;2024-02-21T12:44:51;101018.09;;;7.73;66.70
80749;BME280;70145;53.746;9.970;2024-02-21T12:47:17;101017.03;;;7.76;66.58
80749;BME280;70145;53.746;9.970;2024-02-21T12:49:44;101016.16;;;7.75;66.57
80749;BME280;70145;53.746;9.970;2024-02-21T12:52:10;101009.94;;;7.74;66.62
80749;BME280;70145;53.746;9.970;2024-02-21T12:54:36;101009.94;;;7.74;66.40
80749;BME280;70145;53.746;9.970;2024-02-21T12:57:01;101006.53;;;7.73;66.40
80749;BME280;70145;53.746;9.970;2024-02-21T12:59:28;101003.06;;;7.70;66.55
80749;BME280;70145;53.746;9.970;2024-02-21T13:01:54;101000.50;;;7.69;66.70
80749;BME280;70145;53.746;9.970;2024-02-21T13:04:19;100986.88;;;7.72;66.60
80749;BME280;70145;53.746;9.970;2024-02-21T13:06:46;100989.34;;;7.75;66.22
80749;BME280;70145;53.746;9.970;2024-02-21T13:09:12;100982.19;;;7.76;66.46
80749;BME280;70145;53.746;9.970;2024-02-21T13:11:39;100978.72;;;7.73;66.11
80749;BME280;70145;53.746;9.970;2024-02-21T13:14:05;100983.78;;;7.78;66.31
80749;BME280;70145;53.746;9.970;2024-02-21T13:16:30;100976.81;;;7.76;66.49
80749;BME280;70145;53.746;9.970;2024-02-21T13:18:56;100982.28;;;7.74;66.13
80749;BME280;70145;53.746;9.970;2024-02-21T13:21:21;100980.44;;;7.74;66.09
80749;BME280;70145;53.746;9.970;2024-02-21T13:23:46;100974.13;;;7.76;66.00
80749;BME280;70145;53.746;9.970;2024-02-21T13:26:12;100976.81;;;7.76;66.03
80749;BME280;70145;53.746;9.970;2024-02-21T13:28:38;100972.41;;;7.74;65.65
80749;BME280;70145;53.746;9.970;2024-02-21T13:31:03;100954.72;;;7.72;65.88
80749;BME280;70145;53.746;9.970;2024-02-21T13:33:28;100941.31;;;7.72;66.17
80749;BME280;70145;53.746;9.970;2024-02-21T13:35:54;100935.94;;;7.72;65.71
80749;BME280;70145;53.746;9.970;2024-02-21T13:38:19;100935.06;;;7.71;65.84
80749;BME280;70145;53.746;9.970;2024-02-21T13:40:44;100927.91;;;7.72;66.23
80749;BME280;70145;53.746;9.970;2024-02-21T13:43:10;100912.78;;;7.71;65.82
80749;BME280;70145;53.746;9.970;2024-02-21T13:45:35;100916.09;;;7.74;66.16
80749;BME280;70145;53.746;9.970;2024-02-21T13:48:00;100900.88;;;7.75;66.09
80749;BME280;70145;53.746;9.970;2024-02-21T13:50:30;100898.81;;;7.78;66.00
80749;BME280;70145;53.746;9.970;2024-02-21T13:52:56;100899.69;;;7.79;65.79
80749;BME280;70145;53.746;9.970;2024-02-21T13:55:21;100888.75;;;7.82;65.45
80749;BME280;70145;53.746;9.970;2024-02-21T13:57:53;100879.63;;;7.85;65.79
80749;BME280;70145;53.746;9.970;2024-02-21T14:00:18;100870.63;;;7.86;65.68
80749;BME280;70145;53.746;9.970;2024-02-21T14:02:45;100855.28;;;7.88;65.56
80749;BME280;70145;53.746;9.970;2024-02-21T14:05:11;100849.81;;;7.89;66.01
80749;BME280;70145;53.746;9.970;2024-02-21T14:07:36;100850.66;;;7.90;65.74
80749;BME280;70145;53.746;9.970;2024-02-21T14:10:02;100840.66;;;7.92;65.70
80749;BME280;70145;53.746;9.970;2024-02-21T14:12:28;100838.63;;;7.95;65.54
80749;BME280;70145;53.746;9.970;2024-02-21T14:14:54;100826.09;;;7.96;65.62
80749;BME280;70145;53.746;9.970;2024-02-21T14:17:20;100829.50;;;7.98;65.72
80749;BME280;70145;53.746;9.970;2024-02-21T14:19:45;100815.16;;;7.99;65.34
80749;BME280;70145;53.746;9.970;2024-02-21T14:22:10;100807.81;;;8.01;65.02
80749;BME280;70145;53.746;9.970;2024-02-21T14:24:36;100805.91;;;8.03;65.68
80749;BME280;70145;53.746;9.970;2024-02-21T14:27:02;100796.03;;;8.03;65.44
80749;BME280;70145;53.746;9.970;2024-02-21T14:29:28;100788.84;;;8.04;65.50
80749;BME280;70145;53.746;9.970;2024-02-21T14:31:54;100777.88;;;8.07;65.35
80749;BME280;70145;53.746;9.970;2024-02-21T14:34:19;100773.72;;;8.03;65.45
80749;BME280;70145;53.746;9.970;2024-02-21T14:36:45;100759.09;;;8.07;64.92
80749;BME280;70145;53.746;9.970;2024-02-21T14:39:10;100753.97;;;8.04;65.43
80749;BME280;70145;53.746;9.970;2024-02-21T14:41:35;100742.25;;;8.05;65.30
80749;BME280;70145;53.746;9.970;2024-02-21T14:44:01;100746.25;;;7.99;65.41
80749;BME280;70145;53.746;9.970;2024-02-21T14:46:28;100740.06;;;7.99;65.00
80749;BME280;70145;53.746;9.970;2024-02-21T14:48:54;100748.94;;;7.99;64.92
80749;BME280;70145;53.746;9.970;2024-02-21T14:51:20;100745.19;;;8.02;65.32
80749;BME280;70145;53.746;9.970;2024-02-21T14:53:45;100733.59;;;8.01;64.95
80749;BME280;70145;53.746;9.970;2024-02-21T14:56:15;100734.47;;;8.02;65.09
80749;BME280;70145;53.746;9.970;2024-02-21T14:58:41;100731.03;;;8.00;65.04
80749;BME280;70145;53.746;9.970;2024-02-21T15:01:07;100722.88;;;8.01;65.16